sensor_id;sensor_type;location;lat;lon;timestamp;P1;durP1;ratioP1;P2;durP2;ratioP2
13014;SDS011;6573;57.696;11.950;2023-07-24T00:00:08;2.07;;;1.30;;
13014;SDS011;6573;57.696;11.950;2023-07-24T00:02:37;2.00;;;1.80;;
13014;SDS011;6573;57.696;11.950;2023-07-24T00:05:06;1.53;;;1.30;;
13014;SDS011;6573;57.696;11.950;2023-07-24T00:07:35;1.17;;;1.10;;
13014;SDS011;6573;57.696;11.950;2023-07-24T00:10:03;1.90;;;1.23;;
13014;SDS011;6573;57.696;11.950;2023-07-24T00:12:32;2.03;;;1.60;;
13014;SDS011;6573;57.696;11.950;2023-07-24T00:15:04;1.30;;;1.20;;
13014;SDS011;6573;57.696;11.950;2023-07-24T00:17:35;1.57;;;1.23;;
13014;SDS011;6573;57.696;11.950;2023-07-24T00:20:03;1.43;;;1.07;;
13014;SDS011;6573;57.696;11.950;2023-07-24T00:22:33;2.13;;;1.30;;
13014;SDS011;6573;57.696;11.950;2023-07-24T00:25:01;1.13;;;1.03;;
13014;SDS011;6573;57.696;11.950;2023-07-24T00:27:32;1.30;;;1.20;;
13014;SDS011;6573;57.696;11.950;2023-07-24T00:30:00;1.40;;;1.30;;
13014;SDS011;6573;57.696;11.950;2023-07-24T00:32:29;1.30;;;1.20;;
13014;SDS011;6573;57.696;11.950;2023-07-24T00:34:58;1.40;;;1.20;;
13014;SDS011;6573;57.696;11.950;2023-07-24T00:37:27;1.30;;;1.20;;
13014;SDS011;6573;57.696;11.950;2023-07-24T00:39:57;4.17;;;1.27;;
13014;SDS011;6573;57.696;11.950;2023-07-24T00:42:25;1.20;;;1.10;;
13014;SDS011;6573;57.696;11.950;2023-07-24T00:44:53;0.93;;;0.93;;
13014;SDS011;6573;57.696;11.950;2023-07-24T00:47:21;1.40;;;1.30;;
13014;SDS011;6573;57.696;11.950;2023-07-24T00:49:53;1.50;;;1.27;;
13014;SDS011;6573;57.696;11.950;2023-07-24T00:52:24;1.40;;;1.30;;
13014;SDS011;6573;57.696;11.950;2023-07-24T00:54:56;0.90;;;0.90;;
13014;SDS011;6573;57.696;11.950;2023-07-24T00:57:27;2.23;;;1.10;;
13014;SDS011;6573;57.696;11.950;2023-07-24T00:59:56;1.13;;;1.03;;
13014;SDS011;6573;57.696;11.950;2023-07-24T01:02:24;0.97;;;0.90;;
13014;SDS011;6573;57.696;11.950;2023-07-24T01:04:53;1.40;;;1.20;;
13014;SDS011;6573;57.696;11.950;2023-07-24T01:07:23;1.77;;;1.30;;
13014;SDS011;6573;57.696;11.950;2023-07-24T01:09:52;2.50;;;1.20;;
13014;SDS011;6573;57.696;11.950;2023-07-24T01:12:22;1.33;;;1.23;;
13014;SDS011;6573;57.696;11.950;2023-07-24T01:15:02;1.50;;;1.10;;
13014;SDS011;6573;57.696;11.950;2023-07-24T01:17:38;2.07;;;1.00;;
13014;SDS011;6573;57.696;11.950;2023-07-24T01:20:17;1.43;;;1.10;;
13014;SDS011;6573;57.696;11.950;2023-07-24T01:22:53;1.20;;;1.10;;
13014;SDS011;6573;57.696;11.950;2023-07-24T01:25:33;1.37;;;1.07;;
13014;SDS011;6573;57.696;11.950;2023-07-24T01:28:08;1.30;;;1.20;;
13014;SDS011;6573;57.696;11.950;2023-07-24T01:30:36;1.77;;;1.30;;
13014;SDS011;6573;57.696;11.950;2023-07-24T01:33:04;2.03;;;1.30;;
13014;SDS011;6573;57.696;11.950;2023-07-24T01:35:33;2.63;;;1.20;;
13014;SDS011;6573;57.696;11.950;2023-07-24T01:38:06;4.67;;;1.30;;
13014;SDS011;6573;57.696;11.950;2023-07-24T01:40:34;1.67;;;1.20;;
13014;SDS011;6573;57.696;11.950;2023-07-24T01:43:03;2.30;;;1.20;;
13014;SDS011;6573;57.696;11.950;2023-07-24T01:45:35;1.13;;;0.80;;
13014;SDS011;6573;57.696;11.950;2023-07-24T01:48:05;0.80;;;0.80;;
13014;SDS011;6573;57.696;11.950;2023-07-24T01:50:34;1.10;;;1.00;;
13014;SDS011;6573;57.696;11.950;2023-07-24T01:53:06;1.47;;;1.10;;
13014;SDS011;6573;57.696;11.950;2023-07-24T01:55:34;1.60;;;1.00;;
13014;SDS011;6573;57.696;11.950;2023-07-24T01:58:06;1.03;;;0.90;;
13014;SDS011;6573;57.696;11.950;2023-07-24T02:00:36;0.77;;;0.70;;
13014;SDS011;6573;57.696;11.950;2023-07-24T02:03:05;0.83;;;0.70;;
13014;SDS011;6573;57.696;11.950;2023-07-24T02:05:33;1.30;;;0.90;;
13014;SDS011;6573;57.696;11.950;2023-07-24T02:08:02;0.63;;;0.60;;
13014;SDS011;6573;57.696;11.950;2023-07-24T02:10:30;2.20;;;0.70;;
13014;SDS011;6573;57.696;11.950;2023-07-24T02:13:01;0.83;;;0.70;;
13014;SDS011;6573;57.696;11.950;2023-07-24T02:15:30;0.90;;;0.80;;
13014;SDS011;6573;57.696;11.950;2023-07-24T02:18:00;1.07;;;0.70;;
13014;SDS011;6573;57.696;11.950;2023-07-24T02:20:28;0.70;;;0.60;;
13014;SDS011;6573;57.696;11.950;2023-07-24T02:22:56;1.23;;;0.60;;
13014;SDS011;6573;57.696;11.950;2023-07-24T02:25:25;0.60;;;0.60;;
13014;SDS011;6573;57.696;11.950;2023-07-24T02:27:55;0.70;;;0.70;;
13014;SDS011;6573;57.696;11.950;2023-07-24T02:30:24;0.83;;;0.70;;
13014;SDS011;6573;57.696;11.950;2023-07-24T02:32:52;1.10;;;0.70;;
13014;SDS011;6573;57.696;11.950;2023-07-24T02:35:28;1.50;;;0.40;;
13014;SDS011;6573;57.696;11.950;2023-07-24T02:37:59;0.80;;;0.80;;
13014;SDS011;6573;57.696;11.950;2023-07-24T02:40:29;0.50;;;0.50;;
13014;SDS011;6573;57.696;11.950;2023-07-24T02:43:02;1.73;;;0.57;;
13014;SDS011;6573;57.696;11.950;2023-07-24T02:45:34;0.40;;;0.40;;
13014;SDS011;6573;57.696;11.950;2023-07-24T02:48:04;0.40;;;0.40;;
13014;SDS011;6573;57.696;11.950;2023-07-24T02:50:37;0.30;;;0.30;;
13014;SDS011;6573;57.696;11.950;2023-07-24T02:53:06;0.47;;;0.30;;
13014;SDS011;6573;57.696;11.950;2023-07-24T02:55:34;0.90;;;0.60;;
13014;SDS011;6573;57.696;11.950;2023-07-24T02:58:02;0.40;;;0.40;;
13014;SDS011;6573;57.696;11.950;2023-07-24T03:00:33;0.53;;;0.53;;
13014;SDS011;6573;57.696;11.950;2023-07-24T03:03:02;0.70;;;0.50;;
13014;SDS011;6573;57.696;11.950;2023-07-24T03:05:31;0.60;;;0.50;;
13014;SDS011;6573;57.696;11.950;2023-07-24T03:08:03;0.50;;;0.50;;
13014;SDS011;6573;57.696;11.950;2023-07-24T03:10:31;1.23;;;0.47;;
13014;SDS011;6573;57.696;11.950;2023-07-24T03:13:00;1.33;;;0.50;;
13014;SDS011;6573;57.696;11.950;2023-07-24T03:15:29;1.17;;;0.50;;
13014;SDS011;6573;57.696;11.950;2023-07-24T03:17:58;0.87;;;0.67;;
13014;SDS011;6573;57.696;11.950;2023-07-24T03:20:26;0.93;;;0.40;;
13014;SDS011;6573;57.696;11.950;2023-07-24T03:22:55;0.40;;;0.40;;
13014;SDS011;6573;57.696;11.950;2023-07-24T03:25:26;0.80;;;0.50;;
13014;SDS011;6573;57.696;11.950;2023-07-24T03:28:00;0.50;;;0.50;;
13014;SDS011;6573;57.696;11.950;2023-07-24T03:30:29;0.40;;;0.40;;
13014;SDS011;6573;57.696;11.950;2023-07-24T03:32:59;0.60;;;0.50;;
13014;SDS011;6573;57.696;11.950;2023-07-24T03:35:28;0.87;;;0.57;;
13014;SDS011;6573;57.696;11.950;2023-07-24T03:37:56;0.73;;;0.63;;
13014;SDS011;6573;57.696;11.950;2023-07-24T03:40:26;1.67;;;0.67;;
13014;SDS011;6573;57.696;11.950;2023-07-24T03:42:54;0.80;;;0.80;;
13014;SDS011;6573;57.696;11.950;2023-07-24T03:45:22;0.80;;;0.60;;
13014;SDS011;6573;57.696;11.950;2023-07-24T03:47:51;0.90;;;0.70;;
13014;SDS011;6573;57.696;11.950;2023-07-24T03:50:19;1.37;;;0.97;;
13014;SDS011;6573;57.696;11.950;2023-07-24T03:52:47;1.10;;;0.80;;
13014;SDS011;6573;57.696;11.950;2023-07-24T03:55:16;2.83;;;1.20;;
13014;SDS011;6573;57.696;11.950;2023-07-24T03:57:45;1.40;;;1.30;;
13014;SDS011;6573;57.696;11.950;2023-07-24T04:00:16;2.93;;;1.70;;
13014;SDS011;6573;57.696;11.950;2023-07-24T04:02:45;4.10;;;1.60;;
13014;SDS011;6573;57.696;11.950;2023-07-24T04:05:16;3.73;;;1.20;;
13014;SDS011;6573;57.696;11.950;2023-07-24T04:07:46;6.53;;;2.53;;
13014;SDS011;6573;57.696;11.950;2023-07-24T04:10:15;5.13;;;1.87;;
13014;SDS011;6573;57.696;11.950;2023-07-24T04:12:45;6.77;;;2.70;;
13014;SDS011;6573;57.696;11.950;2023-07-24T04:15:13;5.57;;;2.20;;
13014;SDS011;6573;57.696;11.950;2023-07-24T04:17:42;7.83;;;3.20;;
13014;SDS011;6573;57.696;11.950;2023-07-24T04:20:11;6.10;;;2.50;;
13014;SDS011;6573;57.696;11.950;2023-07-24T04:22:39;7.80;;;2.77;;
13014;SDS011;6573;57.696;11.950;2023-07-24T04:25:08;8.37;;;3.23;;
13014;SDS011;6573;57.696;11.950;2023-07-24T04:27:36;7.73;;;3.57;;
13014;SDS011;6573;57.696;11.950;2023-07-24T04:30:07;11.40;;;3.97;;
13014;SDS011;6573;57.696;11.950;2023-07-24T04:32:35;8.53;;;3.50;;
13014;SDS011;6573;57.696;11.950;2023-07-24T04:35:04;10.90;;;4.77;;
13014;SDS011;6573;57.696;11.950;2023-07-24T04:37:33;10.03;;;4.17;;
13014;SDS011;6573;57.696;11.950;2023-07-24T04:40:04;7.47;;;4.33;;
13014;SDS011;6573;57.696;11.950;2023-07-24T04:42:34;9.43;;;4.80;;
13014;SDS011;6573;57.696;11.950;2023-07-24T04:45:03;11.57;;;3.80;;
13014;SDS011;6573;57.696;11.950;2023-07-24T04:47:35;10.33;;;4.37;;
13014;SDS011;6573;57.696;11.950;2023-07-24T04:50:05;13.73;;;4.67;;
13014;SDS011;6573;57.696;11.950;2023-07-24T04:52:34;12.03;;;4.17;;
13014;SDS011;6573;57.696;11.950;2023-07-24T04:55:02;11.00;;;3.90;;
13014;SDS011;6573;57.696;11.950;2023-07-24T04:57:34;11.40;;;4.77;;
13014;SDS011;6573;57.696;11.950;2023-07-24T05:00:03;13.90;;;4.63;;
13014;SDS011;6573;57.696;11.950;2023-07-24T05:02:32;12.47;;;5.07;;
13014;SDS011;6573;57.696;11.950;2023-07-24T05:05:02;18.63;;;6.63;;
13014;SDS011;6573;57.696;11.950;2023-07-24T05:07:34;12.87;;;5.30;;
13014;SDS011;6573;57.696;11.950;2023-07-24T05:10:02;12.27;;;5.10;;
13014;SDS011;6573;57.696;11.950;2023-07-24T05:12:34;9.87;;;5.87;;
13014;SDS011;6573;57.696;11.950;2023-07-24T05:15:03;10.23;;;4.93;;
13014;SDS011;6573;57.696;11.950;2023-07-24T05:17:32;10.07;;;5.20;;
13014;SDS011;6573;57.696;11.950;2023-07-24T05:20:00;9.10;;;4.70;;
13014;SDS011;6573;57.696;11.950;2023-07-24T05:22:30;10.10;;;5.20;;
13014;SDS011;6573;57.696;11.950;2023-07-24T05:25:00;11.00;;;5.20;;
13014;SDS011;6573;57.696;11.950;2023-07-24T05:27:29;9.87;;;5.77;;
13014;SDS011;6573;57.696;11.950;2023-07-24T05:30:00;8.20;;;5.33;;
13014;SDS011;6573;57.696;11.950;2023-07-24T05:32:28;11.93;;;6.13;;
13014;SDS011;6573;57.696;11.950;2023-07-24T05:34:56;10.47;;;7.20;;
13014;SDS011;6573;57.696;11.950;2023-07-24T05:37:25;13.37;;;6.80;;
13014;SDS011;6573;57.696;11.950;2023-07-24T05:39:54;11.93;;;7.10;;
13014;SDS011;6573;57.696;11.950;2023-07-24T05:42:23;11.50;;;7.00;;
13014;SDS011;6573;57.696;11.950;2023-07-24T05:44:51;14.67;;;7.13;;
13014;SDS011;6573;57.696;11.950;2023-07-24T05:47:19;13.17;;;6.40;;
13014;SDS011;6573;57.696;11.950;2023-07-24T05:49:50;10.20;;;6.10;;
13014;SDS011;6573;57.696;11.950;2023-07-24T05:52:19;8.80;;;5.20;;
13014;SDS011;6573;57.696;11.950;2023-07-24T05:54:47;7.73;;;5.13;;
13014;SDS011;6573;57.696;11.950;2023-07-24T05:57:17;4.87;;;4.13;;
13014;SDS011;6573;57.696;11.950;2023-07-24T05:59:46;6.03;;;4.40;;
13014;SDS011;6573;57.696;11.950;2023-07-24T06:02:14;6.93;;;4.50;;
13014;SDS011;6573;57.696;11.950;2023-07-24T06:04:42;8.73;;;4.50;;
13014;SDS011;6573;57.696;11.950;2023-07-24T06:07:11;6.57;;;4.70;;
13014;SDS011;6573;57.696;11.950;2023-07-24T06:09:39;5.93;;;4.90;;
13014;SDS011;6573;57.696;11.950;2023-07-24T06:12:08;8.50;;;4.77;;
13014;SDS011;6573;57.696;11.950;2023-07-24T06:14:37;10.10;;;5.53;;
13014;SDS011;6573;57.696;11.950;2023-07-24T06:17:06;8.93;;;7.20;;
13014;SDS011;6573;57.696;11.950;2023-07-24T06:19:35;10.77;;;6.30;;
13014;SDS011;6573;57.696;11.950;2023-07-24T06:22:04;9.00;;;5.67;;
13014;SDS011;6573;57.696;11.950;2023-07-24T06:24:32;7.43;;;5.67;;
13014;SDS011;6573;57.696;11.950;2023-07-24T06:27:00;8.50;;;5.80;;
13014;SDS011;6573;57.696;11.950;2023-07-24T06:29:29;9.03;;;5.60;;
13014;SDS011;6573;57.696;11.950;2023-07-24T06:31:58;8.20;;;5.60;;
13014;SDS011;6573;57.696;11.950;2023-07-24T06:34:29;6.77;;;4.83;;
13014;SDS011;6573;57.696;11.950;2023-07-24T06:36:57;9.43;;;5.30;;
13014;SDS011;6573;57.696;11.950;2023-07-24T06:39:47;10.50;;;5.20;;
13014;SDS011;6573;57.696;11.950;2023-07-24T06:42:15;8.97;;;5.03;;
13014;SDS011;6573;57.696;11.950;2023-07-24T06:44:43;8.37;;;5.43;;
13014;SDS011;6573;57.696;11.950;2023-07-24T06:47:14;9.37;;;6.30;;
13014;SDS011;6573;57.696;11.950;2023-07-24T06:49:42;7.90;;;5.07;;
13014;SDS011;6573;57.696;11.950;2023-07-24T06:52:13;16.97;;;6.27;;
13014;SDS011;6573;57.696;11.950;2023-07-24T06:54:41;12.03;;;5.50;;
13014;SDS011;6573;57.696;11.950;2023-07-24T06:57:10;8.33;;;5.23;;
13014;SDS011;6573;57.696;11.950;2023-07-24T06:59:38;7.40;;;5.33;;
13014;SDS011;6573;57.696;11.950;2023-07-24T07:02:06;11.50;;;4.80;;
13014;SDS011;6573;57.696;11.950;2023-07-24T07:04:38;10.80;;;5.30;;
13014;SDS011;6573;57.696;11.950;2023-07-24T07:07:06;7.93;;;4.80;;
13014;SDS011;6573;57.696;11.950;2023-07-24T07:09:35;10.73;;;4.87;;
13014;SDS011;6573;57.696;11.950;2023-07-24T07:12:03;8.10;;;4.90;;
13014;SDS011;6573;57.696;11.950;2023-07-24T07:14:32;10.23;;;5.10;;
13014;SDS011;6573;57.696;11.950;2023-07-24T07:17:05;11.80;;;4.70;;
13014;SDS011;6573;57.696;11.950;2023-07-24T07:19:34;9.80;;;4.70;;
13014;SDS011;6573;57.696;11.950;2023-07-24T07:22:06;11.60;;;4.50;;
13014;SDS011;6573;57.696;11.950;2023-07-24T07:24:34;10.63;;;4.77;;
13014;SDS011;6573;57.696;11.950;2023-07-24T07:27:06;9.50;;;4.60;;
13014;SDS011;6573;57.696;11.950;2023-07-24T07:29:34;12.30;;;4.87;;
13014;SDS011;6573;57.696;11.950;2023-07-24T07:32:06;9.33;;;4.33;;
13014;SDS011;6573;57.696;11.950;2023-07-24T07:34:35;9.80;;;4.40;;
13014;SDS011;6573;57.696;11.950;2023-07-24T07:37:06;6.93;;;3.83;;
13014;SDS011;6573;57.696;11.950;2023-07-24T07:39:35;6.50;;;4.23;;
13014;SDS011;6573;57.696;11.950;2023-07-24T07:42:04;8.03;;;4.10;;
13014;SDS011;6573;57.696;11.950;2023-07-24T07:44:46;7.73;;;4.23;;
13014;SDS011;6573;57.696;11.950;2023-07-24T07:47:16;8.37;;;4.60;;
13014;SDS011;6573;57.696;11.950;2023-07-24T07:49:45;9.63;;;4.60;;
13014;SDS011;6573;57.696;11.950;2023-07-24T07:52:14;8.30;;;4.90;;
13014;SDS011;6573;57.696;11.950;2023-07-24T07:54:45;7.83;;;4.20;;
13014;SDS011;6573;57.696;11.950;2023-07-24T07:57:14;8.80;;;4.60;;
13014;SDS011;6573;57.696;11.950;2023-07-24T07:59:42;8.13;;;4.23;;
13014;SDS011;6573;57.696;11.950;2023-07-24T08:02:11;8.87;;;5.00;;
13014;SDS011;6573;57.696;11.950;2023-07-24T08:04:39;7.27;;;4.53;;
13014;SDS011;6573;57.696;11.950;2023-07-24T08:07:07;9.30;;;4.30;;
13014;SDS011;6573;57.696;11.950;2023-07-24T08:09:37;11.83;;;6.93;;
13014;SDS011;6573;57.696;11.950;2023-07-24T08:12:06;9.27;;;6.00;;
13014;SDS011;6573;57.696;11.950;2023-07-24T08:14:35;7.80;;;4.13;;
13014;SDS011;6573;57.696;11.950;2023-07-24T08:17:03;5.67;;;3.73;;
13014;SDS011;6573;57.696;11.950;2023-07-24T08:19:32;5.77;;;3.93;;
13014;SDS011;6573;57.696;11.950;2023-07-24T08:22:01;9.93;;;3.77;;
13014;SDS011;6573;57.696;11.950;2023-07-24T08:24:33;4.60;;;3.30;;
13014;SDS011;6573;57.696;11.950;2023-07-24T08:27:04;5.40;;;3.27;;
13014;SDS011;6573;57.696;11.950;2023-07-24T08:29:32;4.47;;;2.70;;
13014;SDS011;6573;57.696;11.950;2023-07-24T08:32:04;4.57;;;2.40;;
13014;SDS011;6573;57.696;11.950;2023-07-24T08:34:33;3.57;;;2.40;;
13014;SDS011;6573;57.696;11.950;2023-07-24T08:37:01;2.90;;;2.20;;
13014;SDS011;6573;57.696;11.950;2023-07-24T08:39:32;6.20;;;2.47;;
13014;SDS011;6573;57.696;11.950;2023-07-24T08:42:09;4.50;;;2.40;;
13014;SDS011;6573;57.696;11.950;2023-07-24T08:44:38;5.13;;;2.83;;
13014;SDS011;6573;57.696;11.950;2023-07-24T08:47:09;2.93;;;2.40;;
13014;SDS011;6573;57.696;11.950;2023-07-24T08:49:40;2.50;;;1.90;;
13014;SDS011;6573;57.696;11.950;2023-07-24T08:52:10;5.13;;;2.37;;
13014;SDS011;6573;57.696;11.950;2023-07-24T08:55:01;2.77;;;1.70;;
13014;SDS011;6573;57.696;11.950;2023-07-24T08:57:32;1.80;;;1.50;;
13014;SDS011;6573;57.696;11.950;2023-07-24T09:00:01;1.27;;;1.10;;
13014;SDS011;6573;57.696;11.950;2023-07-24T09:02:32;6.30;;;4.73;;
13014;SDS011;6573;57.696;11.950;2023-07-24T09:05:04;2.03;;;1.20;;
13014;SDS011;6573;57.696;11.950;2023-07-24T09:07:35;2.43;;;1.07;;
13014;SDS011;6573;57.696;11.950;2023-07-24T09:10:06;3.57;;;1.37;;
13014;SDS011;6573;57.696;11.950;2023-07-24T09:12:39;2.00;;;1.40;;
13014;SDS011;6573;57.696;11.950;2023-07-24T09:15:10;1.83;;;1.10;;
13014;SDS011;6573;57.696;11.950;2023-07-24T09:17:48;1.50;;;1.20;;
13014;SDS011;6573;57.696;11.950;2023-07-24T09:20:19;3.40;;;1.30;;
13014;SDS011;6573;57.696;11.950;2023-07-24T09:22:50;3.17;;;1.30;;
13014;SDS011;6573;57.696;11.950;2023-07-24T09:25:39;1.23;;;1.13;;
13014;SDS011;6573;57.696;11.950;2023-07-24T09:28:11;1.13;;;1.00;;
13014;SDS011;6573;57.696;11.950;2023-07-24T09:30:41;1.23;;;0.80;;
13014;SDS011;6573;57.696;11.950;2023-07-24T09:33:10;2.80;;;1.00;;
13014;SDS011;6573;57.696;11.950;2023-07-24T09:35:39;3.40;;;1.00;;
13014;SDS011;6573;57.696;11.950;2023-07-24T09:38:08;2.87;;;1.00;;
13014;SDS011;6573;57.696;11.950;2023-07-24T09:40:38;2.40;;;1.07;;
13014;SDS011;6573;57.696;11.950;2023-07-24T09:43:18;3.53;;;1.10;;
13014;SDS011;6573;57.696;11.950;2023-07-24T09:46:06;3.47;;;1.10;;
13014;SDS011;6573;57.696;11.950;2023-07-24T09:48:37;1.20;;;0.90;;
13014;SDS011;6573;57.696;11.950;2023-07-24T09:51:25;3.23;;;1.00;;
13014;SDS011;6573;57.696;11.950;2023-07-24T09:53:58;3.27;;;1.00;;
13014;SDS011;6573;57.696;11.950;2023-07-24T09:56:34;2.90;;;0.80;;
13014;SDS011;6573;57.696;11.950;2023-07-24T09:59:20;2.43;;;0.80;;
13014;SDS011;6573;57.696;11.950;2023-07-24T10:01:49;1.60;;;0.80;;
13014;SDS011;6573;57.696;11.950;2023-07-24T10:04:18;2.27;;;0.90;;
13014;SDS011;6573;57.696;11.950;2023-07-24T10:06:47;2.07;;;0.80;;
13014;SDS011;6573;57.696;11.950;2023-07-24T10:09:18;3.17;;;1.00;;
13014;SDS011;6573;57.696;11.950;2023-07-24T10:11:49;1.77;;;0.73;;
13014;SDS011;6573;57.696;11.950;2023-07-24T10:14:17;3.20;;;1.10;;
13014;SDS011;6573;57.696;11.950;2023-07-24T10:16:48;5.00;;;1.30;;
13014;SDS011;6573;57.696;11.950;2023-07-24T10:19:22;7.80;;;1.03;;
13014;SDS011;6573;57.696;11.950;2023-07-24T10:21:50;2.37;;;0.80;;
13014;SDS011;6573;57.696;11.950;2023-07-24T10:24:19;2.77;;;0.87;;
13014;SDS011;6573;57.696;11.950;2023-07-24T10:27:07;3.17;;;0.80;;
13014;SDS011;6573;57.696;11.950;2023-07-24T10:29:37;4.30;;;1.07;;
13014;SDS011;6573;57.696;11.950;2023-07-24T10:32:16;3.57;;;1.30;;
13014;SDS011;6573;57.696;11.950;2023-07-24T10:34:55;2.20;;;1.00;;
13014;SDS011;6573;57.696;11.950;2023-07-24T10:37:32;5.30;;;1.27;;
13014;SDS011;6573;57.696;11.950;2023-07-24T10:40:04;3.33;;;1.10;;
13014;SDS011;6573;57.696;11.950;2023-07-24T10:42:34;4.50;;;1.27;;
13014;SDS011;6573;57.696;11.950;2023-07-24T10:45:07;4.73;;;1.20;;
13014;SDS011;6573;57.696;11.950;2023-07-24T10:47:35;5.30;;;1.13;;
13014;SDS011;6573;57.696;11.950;2023-07-24T10:50:06;2.37;;;1.10;;
13014;SDS011;6573;57.696;11.950;2023-07-24T10:52:35;3.90;;;1.20;;
13014;SDS011;6573;57.696;11.950;2023-07-24T10:55:04;2.63;;;1.07;;
13014;SDS011;6573;57.696;11.950;2023-07-24T10:57:36;4.07;;;1.13;;
13014;SDS011;6573;57.696;11.950;2023-07-24T11:00:07;2.43;;;0.90;;
13014;SDS011;6573;57.696;11.950;2023-07-24T11:02:36;4.30;;;1.03;;
13014;SDS011;6573;57.696;11.950;2023-07-24T11:05:05;2.30;;;1.10;;
13014;SDS011;6573;57.696;11.950;2023-07-24T11:07:34;2.17;;;1.00;;
13014;SDS011;6573;57.696;11.950;2023-07-24T11:10:02;2.67;;;0.93;;
13014;SDS011;6573;57.696;11.950;2023-07-24T11:12:38;2.63;;;0.90;;
13014;SDS011;6573;57.696;11.950;2023-07-24T11:15:09;5.43;;;1.00;;
13014;SDS011;6573;57.696;11.950;2023-07-24T11:17:38;3.83;;;0.97;;
13014;SDS011;6573;57.696;11.950;2023-07-24T11:20:11;2.57;;;0.90;;
13014;SDS011;6573;57.696;11.950;2023-07-24T11:22:41;3.40;;;0.97;;
13014;SDS011;6573;57.696;11.950;2023-07-24T11:25:10;2.13;;;0.80;;
13014;SDS011;6573;57.696;11.950;2023-07-24T11:27:39;4.27;;;0.97;;
13014;SDS011;6573;57.696;11.950;2023-07-24T11:30:11;2.87;;;0.80;;
13014;SDS011;6573;57.696;11.950;2023-07-24T11:32:40;2.70;;;1.53;;
13014;SDS011;6573;57.696;11.950;2023-07-24T11:35:10;6.00;;;1.20;;
13014;SDS011;6573;57.696;11.950;2023-07-24T11:37:38;2.70;;;1.20;;
13014;SDS011;6573;57.696;11.950;2023-07-24T11:40:09;2.80;;;1.07;;
13014;SDS011;6573;57.696;11.950;2023-07-24T11:42:42;3.20;;;0.80;;
13014;SDS011;6573;57.696;11.950;2023-07-24T11:45:13;4.43;;;1.00;;
13014;SDS011;6573;57.696;11.950;2023-07-24T11:47:44;1.53;;;0.90;;
13014;SDS011;6573;57.696;11.950;2023-07-24T11:50:15;2.73;;;1.00;;
13014;SDS011;6573;57.696;11.950;2023-07-24T11:52:45;4.20;;;0.90;;
13014;SDS011;6573;57.696;11.950;2023-07-24T11:55:16;2.57;;;0.80;;
13014;SDS011;6573;57.696;11.950;2023-07-24T11:57:55;1.53;;;0.73;;
13014;SDS011;6573;57.696;11.950;2023-07-24T12:00:27;1.07;;;0.90;;
13014;SDS011;6573;57.696;11.950;2023-07-24T12:03:06;3.90;;;0.80;;
13014;SDS011;6573;57.696;11.950;2023-07-24T12:05:37;3.43;;;1.10;;
13014;SDS011;6573;57.696;11.950;2023-07-24T12:08:06;2.40;;;1.00;;
13014;SDS011;6573;57.696;11.950;2023-07-24T12:10:38;1.70;;;0.90;;
13014;SDS011;6573;57.696;11.950;2023-07-24T12:13:06;2.60;;;0.87;;
13014;SDS011;6573;57.696;11.950;2023-07-24T12:15:36;1.67;;;0.80;;
13014;SDS011;6573;57.696;11.950;2023-07-24T12:18:05;1.63;;;1.00;;
13014;SDS011;6573;57.696;11.950;2023-07-24T12:20:34;2.60;;;0.90;;
13014;SDS011;6573;57.696;11.950;2023-07-24T12:23:02;1.33;;;0.80;;
13014;SDS011;6573;57.696;11.950;2023-07-24T12:25:31;2.43;;;0.70;;
13014;SDS011;6573;57.696;11.950;2023-07-24T12:28:00;0.90;;;0.67;;
13014;SDS011;6573;57.696;11.950;2023-07-24T12:30:29;2.60;;;0.80;;
13014;SDS011;6573;57.696;11.950;2023-07-24T12:32:58;1.70;;;0.80;;
13014;SDS011;6573;57.696;11.950;2023-07-24T12:35:31;4.33;;;1.10;;
13014;SDS011;6573;57.696;11.950;2023-07-24T12:38:02;3.47;;;0.83;;
13014;SDS011;6573;57.696;11.950;2023-07-24T12:40:31;2.83;;;0.90;;
13014;SDS011;6573;57.696;11.950;2023-07-24T12:42:59;1.13;;;0.77;;
13014;SDS011;6573;57.696;11.950;2023-07-24T12:45:27;2.07;;;0.90;;
13014;SDS011;6573;57.696;11.950;2023-07-24T12:47:56;1.20;;;0.77;;
13014;SDS011;6573;57.696;11.950;2023-07-24T12:50:28;2.73;;;0.70;;
13014;SDS011;6573;57.696;11.950;2023-07-24T12:52:57;2.83;;;0.90;;
13014;SDS011;6573;57.696;11.950;2023-07-24T12:55:29;3.47;;;1.10;;
13014;SDS011;6573;57.696;11.950;2023-07-24T12:57:57;2.73;;;0.77;;
13014;SDS011;6573;57.696;11.950;2023-07-24T13:00:30;3.77;;;0.70;;
13014;SDS011;6573;57.696;11.950;2023-07-24T13:03:01;1.13;;;0.70;;
13014;SDS011;6573;57.696;11.950;2023-07-24T13:05:30;2.70;;;0.80;;
13014;SDS011;6573;57.696;11.950;2023-07-24T13:07:59;4.67;;;0.80;;
13014;SDS011;6573;57.696;11.950;2023-07-24T13:10:28;1.20;;;0.70;;
13014;SDS011;6573;57.696;11.950;2023-07-24T13:12:56;2.77;;;0.70;;
13014;SDS011;6573;57.696;11.950;2023-07-24T13:15:25;1.73;;;0.73;;
13014;SDS011;6573;57.696;11.950;2023-07-24T13:17:56;0.83;;;0.63;;
13014;SDS011;6573;57.696;11.950;2023-07-24T13:20:37;1.60;;;0.50;;
13014;SDS011;6573;57.696;11.950;2023-07-24T13:23:05;3.27;;;0.80;;
13014;SDS011;6573;57.696;11.950;2023-07-24T13:25:34;3.13;;;0.80;;
13014;SDS011;6573;57.696;11.950;2023-07-24T13:28:02;0.93;;;0.50;;
13014;SDS011;6573;57.696;11.950;2023-07-24T13:30:30;1.37;;;0.57;;
13014;SDS011;6573;57.696;11.950;2023-07-24T13:32:59;3.20;;;0.77;;
13014;SDS011;6573;57.696;11.950;2023-07-24T13:35:27;3.30;;;0.70;;
13014;SDS011;6573;57.696;11.950;2023-07-24T13:37:58;2.73;;;0.90;;
13014;SDS011;6573;57.696;11.950;2023-07-24T13:40:27;4.60;;;0.70;;
13014;SDS011;6573;57.696;11.950;2023-07-24T13:43:01;1.07;;;0.67;;
13014;SDS011;6573;57.696;11.950;2023-07-24T13:45:30;1.03;;;0.70;;
13014;SDS011;6573;57.696;11.950;2023-07-24T13:47:58;0.93;;;0.70;;
13014;SDS011;6573;57.696;11.950;2023-07-24T13:50:27;3.03;;;0.70;;
13014;SDS011;6573;57.696;11.950;2023-07-24T13:52:55;3.00;;;0.90;;
13014;SDS011;6573;57.696;11.950;2023-07-24T13:55:25;2.20;;;0.97;;
13014;SDS011;6573;57.696;11.950;2023-07-24T13:57:53;2.23;;;0.80;;
13014;SDS011;6573;57.696;11.950;2023-07-24T14:00:21;3.50;;;1.20;;
13014;SDS011;6573;57.696;11.950;2023-07-24T14:02:50;2.30;;;0.80;;
13014;SDS011;6573;57.696;11.950;2023-07-24T14:05:18;2.40;;;0.70;;
13014;SDS011;6573;57.696;11.950;2023-07-24T14:07:47;3.33;;;0.70;;
13014;SDS011;6573;57.696;11.950;2023-07-24T14:10:15;1.63;;;0.70;;
13014;SDS011;6573;57.696;11.950;2023-07-24T14:12:45;3.23;;;0.60;;
13014;SDS011;6573;57.696;11.950;2023-07-24T14:15:14;1.07;;;0.60;;
13014;SDS011;6573;57.696;11.950;2023-07-24T14:17:42;2.07;;;0.70;;
13014;SDS011;6573;57.696;11.950;2023-07-24T14:20:11;3.17;;;0.60;;
13014;SDS011;6573;57.696;11.950;2023-07-24T14:22:39;4.57;;;0.77;;
13014;SDS011;6573;57.696;11.950;2023-07-24T14:25:08;1.97;;;0.80;;
13014;SDS011;6573;57.696;11.950;2023-07-24T14:27:36;3.50;;;0.70;;
13014;SDS011;6573;57.696;11.950;2023-07-24T14:30:08;3.90;;;0.90;;
13014;SDS011;6573;57.696;11.950;2023-07-24T14:32:39;2.03;;;0.70;;
13014;SDS011;6573;57.696;11.950;2023-07-24T14:35:08;2.77;;;0.83;;
13014;SDS011;6573;57.696;11.950;2023-07-24T14:37:36;0.90;;;0.87;;
13014;SDS011;6573;57.696;11.950;2023-07-24T14:40:05;3.23;;;0.80;;
13014;SDS011;6573;57.696;11.950;2023-07-24T14:42:34;4.43;;;1.03;;
13014;SDS011;6573;57.696;11.950;2023-07-24T14:45:02;1.27;;;0.80;;
13014;SDS011;6573;57.696;11.950;2023-07-24T14:47:36;3.60;;;1.17;;
13014;SDS011;6573;57.696;11.950;2023-07-24T14:50:04;2.47;;;0.67;;
13014;SDS011;6573;57.696;11.950;2023-07-24T14:52:33;2.63;;;0.90;;
13014;SDS011;6573;57.696;11.950;2023-07-24T14:55:02;2.03;;;1.00;;
13014;SDS011;6573;57.696;11.950;2023-07-24T14:57:31;3.60;;;1.20;;
13014;SDS011;6573;57.696;11.950;2023-07-24T15:00:00;3.60;;;1.00;;
13014;SDS011;6573;57.696;11.950;2023-07-24T15:02:31;4.07;;;1.10;;